sensor_id;sensor_type;location;lat;lon;timestamp;temperature;humidity
22950;DHT22;11641;51.018;4.474;2023-03-31T00:00:44;13.20;99.90
22950;DHT22;11641;51.018;4.474;2023-03-31T00:03:11;13.30;99.90
22950;DHT22;11641;51.018;4.474;2023-03-31T00:05:38;13.40;99.90
22950;DHT22;11641;51.018;4.474;2023-03-31T00:08:12;13.30;99.90
22950;DHT22;11641;51.018;4.474;2023-03-31T00:10:44;13.50;99.90
22950;DHT22;11641;51.018;4.474;2023-03-31T00:13:11;13.40;99.90
22950;DHT22;11641;51.018;4.474;2023-03-31T00:15:39;13.40;99.90
22950;DHT22;11641;51.018;4.474;2023-03-31T00:18:05;13.20;99.90
22950;DHT22;11641;51.018;4.474;2023-03-31T00:20:31;13.10;99.90
22950;DHT22;11641;51.018;4.474;2023-03-31T00:23:03;13.00;99.90
22950;DHT22;11641;51.018;4.474;2023-03-31T00:25:40;13.00;99.90
22950;DHT22;11641;51.018;4.474;2023-03-31T00:28:06;13.00;99.90
22950;DHT22;11641;51.018;4.474;2023-03-31T00:30:31;13.00;99.90
22950;DHT22;11641;51.018;4.474;2023-03-31T00:32:57;12.90;99.90
22950;DHT22;11641;51.018;4.474;2023-03-31T00:35:23;12.90;99.90
22950;DHT22;11641;51.018;4.474;2023-03-31T00:37:48;13.00;99.90
22950;DHT22;11641;51.018;4.474;2023-03-31T00:40:14;12.80;99.90
22950;DHT22;11641;51.018;4.474;2023-03-31T00:42:43;12.80;99.90
22950;DHT22;11641;51.018;4.474;2023-03-31T00:47:50;12.70;99.90
22950;DHT22;11641;51.018;4.474;2023-03-31T00:50:19;12.60;99.90
22950;DHT22;11641;51.018;4.474;2023-03-31T00:52:47;12.50;99.90
22950;DHT22;11641;51.018;4.474;2023-03-31T00:55:18;12.50;99.90
22950;DHT22;11641;51.018;4.474;2023-03-31T00:57:47;12.40;99.90
22950;DHT22;11641;51.018;4.474;2023-03-31T01:00:14;12.30;99.90
22950;DHT22;11641;51.018;4.474;2023-03-31T01:02:46;12.20;99.90
22950;DHT22;11641;51.018;4.474;2023-03-31T01:05:22;12.20;99.90
22950;DHT22;11641;51.018;4.474;2023-03-31T01:07:50;12.10;99.90
22950;DHT22;11641;51.018;4.474;2023-03-31T01:10:17;12.20;99.90
22950;DHT22;11641;51.018;4.474;2023-03-31T01:12:46;12.30;99.90
22950;DHT22;11641;51.018;4.474;2023-03-31T01:15:13;12.20;99.90
22950;DHT22;11641;51.018;4.474;2023-03-31T01:17:42;12.20;99.90
22950;DHT22;11641;51.018;4.474;2023-03-31T01:48:26;12.40;99.90
22950;DHT22;11641;51.018;4.474;2023-03-31T01:51:02;12.50;99.90
22950;DHT22;11641;51.018;4.474;2023-03-31T01:53:54;12.50;99.90
22950;DHT22;11641;51.018;4.474;2023-03-31T01:56:33;12.50;99.90
22950;DHT22;11641;51.018;4.474;2023-03-31T01:59:14;12.40;99.90
22950;DHT22;11641;51.018;4.474;2023-03-31T02:04:29;12.50;99.90
22950;DHT22;11641;51.018;4.474;2023-03-31T02:07:03;12.50;99.90
22950;DHT22;11641;51.018;4.474;2023-03-31T02:09:35;12.40;99.90
22950;DHT22;11641;51.018;4.474;2023-03-31T02:12:08;12.40;99.90
22950;DHT22;11641;51.018;4.474;2023-03-31T02:14:38;12.30;99.90
22950;DHT22;11641;51.018;4.474;2023-03-31T02:17:06;12.30;99.90
22950;DHT22;11641;51.018;4.474;2023-03-31T02:19:39;12.30;99.90
22950;DHT22;11641;51.018;4.474;2023-03-31T02:22:10;12.20;99.90
22950;DHT22;11641;51.018;4.474;2023-03-31T02:24:38;12.10;99.90
22950;DHT22;11641;51.018;4.474;2023-03-31T02:29:36;12.30;99.90
22950;DHT22;11641;51.018;4.474;2023-03-31T02:32:18;12.30;99.90
22950;DHT22;11641;51.018;4.474;2023-03-31T02:34:48;12.30;99.90
22950;DHT22;11641;51.018;4.474;2023-03-31T02:37:14;12.20;99.90
22950;DHT22;11641;51.018;4.474;2023-03-31T02:39:42;12.20;99.90
22950;DHT22;11641;51.018;4.474;2023-03-31T02:42:09;12.20;99.90
22950;DHT22;11641;51.018;4.474;2023-03-31T02:44:35;12.10;99.90
22950;DHT22;11641;51.018;4.474;2023-03-31T02:47:07;12.00;99.90
22950;DHT22;11641;51.018;4.474;2023-03-31T02:49:34;12.10;99.90
22950;DHT22;11641;51.018;4.474;2023-03-31T03:00:40;11.90;99.90
22950;DHT22;11641;51.018;4.474;2023-03-31T03:11:19;12.10;99.90
22950;DHT22;11641;51.018;4.474;2023-03-31T03:14:05;12.10;99.90
22950;DHT22;11641;51.018;4.474;2023-03-31T03:16:42;12.10;99.90
22950;DHT22;11641;51.018;4.474;2023-03-31T03:19:09;12.10;99.90
22950;DHT22;11641;51.018;4.474;2023-03-31T03:21:44;12.10;99.90
22950;DHT22;11641;51.018;4.474;2023-03-31T03:24:13;12.20;99.90
22950;DHT22;11641;51.018;4.474;2023-03-31T03:26:39;12.10;99.90
22950;DHT22;11641;51.018;4.474;2023-03-31T03:29:07;12.10;99.90
22950;DHT22;11641;51.018;4.474;2023-03-31T03:31:35;12.00;99.90
22950;DHT22;11641;51.018;4.474;2023-03-31T03:34:01;12.00;99.90
22950;DHT22;11641;51.018;4.474;2023-03-31T03:36:27;12.10;99.90
22950;DHT22;11641;51.018;4.474;2023-03-31T03:38:53;12.00;99.90
22950;DHT22;11641;51.018;4.474;2023-03-31T03:41:19;12.00;99.90
22950;DHT22;11641;51.018;4.474;2023-03-31T03:43:45;12.00;99.90
22950;DHT22;11641;51.018;4.474;2023-03-31T03:46:13;12.10;99.90
22950;DHT22;11641;51.018;4.474;2023-03-31T03:48:39;12.20;99.90
22950;DHT22;11641;51.018;4.474;2023-03-31T03:51:07;12.20;99.90
22950;DHT22;11641;51.018;4.474;2023-03-31T03:53:32;12.00;99.90
22950;DHT22;11641;51.018;4.474;2023-03-31T03:55:58;12.00;99.90
22950;DHT22;11641;51.018;4.474;2023-03-31T03:58:26;11.90;99.90
22950;DHT22;11641;51.018;4.474;2023-03-31T04:00:52;12.00;99.90
22950;DHT22;11641;51.018;4.474;2023-03-31T04:03:18;12.00;99.90
22950;DHT22;11641;51.018;4.474;2023-03-31T04:05:45;12.00;99.90
22950;DHT22;11641;51.018;4.474;2023-03-31T04:08:14;11.80;99.90
22950;DHT22;11641;51.018;4.474;2023-03-31T04:10:46;11.80;99.90
22950;DHT22;11641;51.018;4.474;2023-03-31T04:13:22;11.80;99.90
22950;DHT22;11641;51.018;4.474;2023-03-31T04:15:48;11.80;99.90
22950;DHT22;11641;51.018;4.474;2023-03-31T04:18:13;11.80;99.90
22950;DHT22;11641;51.018;4.474;2023-03-31T04:20:54;11.80;99.90
22950;DHT22;11641;51.018;4.474;2023-03-31T04:23:34;11.80;99.90
22950;DHT22;11641;51.018;4.474;2023-03-31T04:26:03;11.80;99.90
22950;DHT22;11641;51.018;4.474;2023-03-31T04:28:34;11.70;99.90
22950;DHT22;11641;51.018;4.474;2023-03-31T04:31:01;11.60;99.90
22950;DHT22;11641;51.018;4.474;2023-03-31T04:33:30;11.50;99.90
22950;DHT22;11641;51.018;4.474;2023-03-31T04:35:58;11.50;99.90
22950;DHT22;11641;51.018;4.474;2023-03-31T04:38:31;11.50;99.90
22950;DHT22;11641;51.018;4.474;2023-03-31T04:41:04;11.40;99.90
22950;DHT22;11641;51.018;4.474;2023-03-31T04:43:32;11.40;99.90
22950;DHT22;11641;51.018;4.474;2023-03-31T04:45:57;11.30;99.90
22950;DHT22;11641;51.018;4.474;2023-03-31T04:48:25;11.40;99.90
22950;DHT22;11641;51.018;4.474;2023-03-31T04:50:53;11.40;99.90
22950;DHT22;11641;51.018;4.474;2023-03-31T04:53:21;11.40;99.90
22950;DHT22;11641;51.018;4.474;2023-03-31T04:55:48;11.30;99.90
22950;DHT22;11641;51.018;4.474;2023-03-31T04:58:14;11.30;99.90
22950;DHT22;11641;51.018;4.474;2023-03-31T05:00:40;11.30;99.90
22950;DHT22;11641;51.018;4.474;2023-03-31T05:03:05;11.40;99.90
22950;DHT22;11641;51.018;4.474;2023-03-31T05:05:31;11.20;99.90
22950;DHT22;11641;51.018;4.474;2023-03-31T05:08:00;11.20;99.90
22950;DHT22;11641;51.018;4.474;2023-03-31T05:10:28;11.30;99.90
22950;DHT22;11641;51.018;4.474;2023-03-31T05:12:54;11.40;99.90
22950;DHT22;11641;51.018;4.474;2023-03-31T05:15:22;11.40;99.90
22950;DHT22;11641;51.018;4.474;2023-03-31T05:17:51;11.50;99.90
22950;DHT22;11641;51.018;4.474;2023-03-31T05:20:18;11.40;99.90
22950;DHT22;11641;51.018;4.474;2023-03-31T05:22:45;11.50;99.90
22950;DHT22;11641;51.018;4.474;2023-03-31T05:25:12;11.70;99.90
22950;DHT22;11641;51.018;4.474;2023-03-31T05:27:47;11.80;99.90
22950;DHT22;11641;51.018;4.474;2023-03-31T05:30:16;11.80;99.90
22950;DHT22;11641;51.018;4.474;2023-03-31T05:32:44;11.70;99.90
22950;DHT22;11641;51.018;4.474;2023-03-31T05:35:10;11.70;99.90
22950;DHT22;11641;51.018;4.474;2023-03-31T05:37:36;11.70;99.90
22950;DHT22;11641;51.018;4.474;2023-03-31T05:40:02;11.70;99.90
22950;DHT22;11641;51.018;4.474;2023-03-31T05:42:31;11.80;99.90
22950;DHT22;11641;51.018;4.474;2023-03-31T05:44:57;11.70;99.90
22950;DHT22;11641;51.018;4.474;2023-03-31T05:47:23;11.70;99.90
22950;DHT22;11641;51.018;4.474;2023-03-31T05:49:50;11.70;99.90
22950;DHT22;11641;51.018;4.474;2023-03-31T05:52:17;11.70;99.90
22950;DHT22;11641;51.018;4.474;2023-03-31T05:54:43;11.80;99.90
22950;DHT22;11641;51.018;4.474;2023-03-31T05:57:11;11.80;99.90
22950;DHT22;11641;51.018;4.474;2023-03-31T05:59:37;11.80;99.90
22950;DHT22;11641;51.018;4.474;2023-03-31T06:02:05;11.80;99.90
22950;DHT22;11641;51.018;4.474;2023-03-31T06:04:30;11.80;99.90
22950;DHT22;11641;51.018;4.474;2023-03-31T06:06:59;11.90;99.90
22950;DHT22;11641;51.018;4.474;2023-03-31T06:09:25;11.90;99.90
22950;DHT22;11641;51.018;4.474;2023-03-31T06:11:52;11.90;99.90
22950;DHT22;11641;51.018;4.474;2023-03-31T06:14:18;12.00;99.90
22950;DHT22;11641;51.018;4.474;2023-03-31T06:16:44;12.10;99.90
22950;DHT22;11641;51.018;4.474;2023-03-31T06:19:12;12.10;99.90
22950;DHT22;11641;51.018;4.474;2023-03-31T06:21:37;12.00;99.90
22950;DHT22;11641;51.018;4.474;2023-03-31T06:24:03;12.00;99.90
22950;DHT22;11641;51.018;4.474;2023-03-31T06:26:31;12.00;99.90
22950;DHT22;11641;51.018;4.474;2023-03-31T06:28:57;12.00;99.90
22950;DHT22;11641;51.018;4.474;2023-03-31T06:31:23;12.10;99.90
22950;DHT22;11641;51.018;4.474;2023-03-31T06:33:49;12.00;99.90
22950;DHT22;11641;51.018;4.474;2023-03-31T06:36:17;12.10;99.90
22950;DHT22;11641;51.018;4.474;2023-03-31T06:38:46;12.20;99.90
22950;DHT22;11641;51.018;4.474;2023-03-31T06:41:13;12.20;99.90
22950;DHT22;11641;51.018;4.474;2023-03-31T06:43:39;12.20;99.90
22950;DHT22;11641;51.018;4.474;2023-03-31T06:46:05;12.20;99.90
22950;DHT22;11641;51.018;4.474;2023-03-31T06:48:34;12.30;99.90
22950;DHT22;11641;51.018;4.474;2023-03-31T06:51:01;12.40;99.90
22950;DHT22;11641;51.018;4.474;2023-03-31T06:53:30;12.50;99.90
22950;DHT22;11641;51.018;4.474;2023-03-31T06:55:56;12.50;99.90
22950;DHT22;11641;51.018;4.474;2023-03-31T06:58:22;12.70;99.90
22950;DHT22;11641;51.018;4.474;2023-03-31T07:00:47;12.70;99.90
22950;DHT22;11641;51.018;4.474;2023-03-31T07:03:14;12.90;99.90
22950;DHT22;11641;51.018;4.474;2023-03-31T07:05:50;13.10;99.90
22950;DHT22;11641;51.018;4.474;2023-03-31T07:08:16;13.30;99.90
22950;DHT22;11641;51.018;4.474;2023-03-31T07:10:46;13.20;99.90
22950;DHT22;11641;51.018;4.474;2023-03-31T07:13:15;13.30;99.90
22950;DHT22;11641;51.018;4.474;2023-03-31T07:15:41;13.40;99.90
22950;DHT22;11641;51.018;4.474;2023-03-31T07:18:06;13.40;99.90
22950;DHT22;11641;51.018;4.474;2023-03-31T07:20:33;13.50;99.90
22950;DHT22;11641;51.018;4.474;2023-03-31T07:23:03;13.40;99.90
22950;DHT22;11641;51.018;4.474;2023-03-31T07:25:33;13.50;99.90
22950;DHT22;11641;51.018;4.474;2023-03-31T07:27:59;13.40;99.90
22950;DHT22;11641;51.018;4.474;2023-03-31T07:30:25;13.30;99.90
22950;DHT22;11641;51.018;4.474;2023-03-31T07:32:51;13.20;99.90
22950;DHT22;11641;51.018;4.474;2023-03-31T07:35:18;13.20;99.90
22950;DHT22;11641;51.018;4.474;2023-03-31T07:37:48;13.20;99.90
22950;DHT22;11641;51.018;4.474;2023-03-31T07:40:19;13.20;99.90
22950;DHT22;11641;51.018;4.474;2023-03-31T07:42:45;13.20;99.90
22950;DHT22;11641;51.018;4.474;2023-03-31T07:45:15;13.10;99.90
22950;DHT22;11641;51.018;4.474;2023-03-31T07:47:41;13.00;99.90
22950;DHT22;11641;51.018;4.474;2023-03-31T07:50:08;12.90;99.90
22950;DHT22;11641;51.018;4.474;2023-03-31T07:52:33;12.90;99.90
22950;DHT22;11641;51.018;4.474;2023-03-31T07:54:59;12.90;99.90
22950;DHT22;11641;51.018;4.474;2023-03-31T07:57:25;13.00;99.90
22950;DHT22;11641;51.018;4.474;2023-03-31T07:59:50;12.90;99.90
22950;DHT22;11641;51.018;4.474;2023-03-31T08:02:16;12.80;99.90
22950;DHT22;11641;51.018;4.474;2023-03-31T08:04:45;13.00;99.90
22950;DHT22;11641;51.018;4.474;2023-03-31T08:07:14;13.10;99.90
22950;DHT22;11641;51.018;4.474;2023-03-31T08:09:45;13.30;99.90
22950;DHT22;11641;51.018;4.474;2023-03-31T08:12:11;13.40;99.90
22950;DHT22;11641;51.018;4.474;2023-03-31T08:14:38;13.60;99.90
22950;DHT22;11641;51.018;4.474;2023-03-31T08:17:03;13.80;99.90
22950;DHT22;11641;51.018;4.474;2023-03-31T08:19:32;13.80;99.90
22950;DHT22;11641;51.018;4.474;2023-03-31T08:21:57;13.70;99.90
22950;DHT22;11641;51.018;4.474;2023-03-31T08:24:23;13.40;99.90
22950;DHT22;11641;51.018;4.474;2023-03-31T08:26:49;13.40;99.90
22950;DHT22;11641;51.018;4.474;2023-03-31T08:29:15;13.70;99.90
22950;DHT22;11641;51.018;4.474;2023-03-31T08:31:40;13.70;99.90
22950;DHT22;11641;51.018;4.474;2023-03-31T08:34:06;13.60;99.90
22950;DHT22;11641;51.018;4.474;2023-03-31T08:36:32;14.00;99.90
22950;DHT22;11641;51.018;4.474;2023-03-31T08:38:57;14.00;99.90
22950;DHT22;11641;51.018;4.474;2023-03-31T08:44:38;14.00;99.90
22950;DHT22;11641;51.018;4.474;2023-03-31T08:47:02;13.70;99.90
22950;DHT22;11641;51.018;4.474;2023-03-31T08:49:40;14.00;99.90
22950;DHT22;11641;51.018;4.474;2023-03-31T08:52:13;14.00;99.90
22950;DHT22;11641;51.018;4.474;2023-03-31T08:54:47;13.60;99.90
22950;DHT22;11641;51.018;4.474;2023-03-31T08:57:31;13.80;99.90
22950;DHT22;11641;51.018;4.474;2023-03-31T08:59:59;13.90;99.90
22950;DHT22;11641;51.018;4.474;2023-03-31T09:11:29;14.50;99.90
22950;DHT22;11641;51.018;4.474;2023-03-31T09:14:12;14.30;99.90
22950;DHT22;11641;51.018;4.474;2023-03-31T09:19:42;14.60;99.90
22950;DHT22;11641;51.018;4.474;2023-03-31T09:22:15;14.60;99.90
22950;DHT22;11641;51.018;4.474;2023-03-31T09:24:54;14.50;99.90
22950;DHT22;11641;51.018;4.474;2023-03-31T09:27:26;15.00;99.90
22950;DHT22;11641;51.018;4.474;2023-03-31T09:30:15;14.90;99.90
22950;DHT22;11641;51.018;4.474;2023-03-31T09:32:42;15.20;99.90
22950;DHT22;11641;51.018;4.474;2023-03-31T09:37:46;14.90;99.90
22950;DHT22;11641;51.018;4.474;2023-03-31T09:40:18;14.90;99.90
22950;DHT22;11641;51.018;4.474;2023-03-31T09:42:53;14.70;99.90
22950;DHT22;11641;51.018;4.474;2023-03-31T09:45:22;14.70;99.90
22950;DHT22;11641;51.018;4.474;2023-03-31T09:47:54;15.00;99.90
22950;DHT22;11641;51.018;4.474;2023-03-31T09:50:21;15.30;99.90
22950;DHT22;11641;51.018;4.474;2023-03-31T09:52:55;15.40;99.90
22950;DHT22;11641;51.018;4.474;2023-03-31T09:57:47;14.70;99.90
22950;DHT22;11641;51.018;4.474;2023-03-31T10:00:19;14.60;99.90
22950;DHT22;11641;51.018;4.474;2023-03-31T10:02:55;14.20;99.90
22950;DHT22;11641;51.018;4.474;2023-03-31T10:05:26;14.10;99.90
22950;DHT22;11641;51.018;4.474;2023-03-31T10:10:47;13.80;99.90
22950;DHT22;11641;51.018;4.474;2023-03-31T10:13:16;13.90;99.90
22950;DHT22;11641;51.018;4.474;2023-03-31T10:15:43;13.90;99.90
22950;DHT22;11641;51.018;4.474;2023-03-31T10:18:16;13.80;99.90
22950;DHT22;11641;51.018;4.474;2023-03-31T10:20:50;13.80;99.90
22950;DHT22;11641;51.018;4.474;2023-03-31T10:23:25;13.80;99.90
22950;DHT22;11641;51.018;4.474;2023-03-31T10:25:53;13.70;99.90
22950;DHT22;11641;51.018;4.474;2023-03-31T10:28:20;13.80;99.90
22950;DHT22;11641;51.018;4.474;2023-03-31T10:30:54;13.80;99.90
22950;DHT22;11641;51.018;4.474;2023-03-31T10:33:29;13.90;99.90
22950;DHT22;11641;51.018;4.474;2023-03-31T10:35:58;13.90;99.90
22950;DHT22;11641;51.018;4.474;2023-03-31T10:38:40;13.70;99.90
22950;DHT22;11641;51.018;4.474;2023-03-31T10:41:07;13.80;99.90
22950;DHT22;11641;51.018;4.474;2023-03-31T10:43:40;13.90;99.90
22950;DHT22;11641;51.018;4.474;2023-03-31T10:46:06;13.90;99.90
22950;DHT22;11641;51.018;4.474;2023-03-31T10:48:37;13.90;99.90
22950;DHT22;11641;51.018;4.474;2023-03-31T10:51:17;14.00;99.90
22950;DHT22;11641;51.018;4.474;2023-03-31T10:53:48;14.30;99.90
22950;DHT22;11641;51.018;4.474;2023-03-31T10:56:37;14.30;99.90
22950;DHT22;11641;51.018;4.474;2023-03-31T11:04:56;14.60;99.90
22950;DHT22;11641;51.018;4.474;2023-03-31T11:13:13;14.80;99.90
22950;DHT22;11641;51.018;4.474;2023-03-31T11:29:50;15.80;99.90
22950;DHT22;11641;51.018;4.474;2023-03-31T11:40:35;16.00;99.90
22950;DHT22;11641;51.018;4.474;2023-03-31T11:48:46;17.00;99.90
22950;DHT22;11641;51.018;4.474;2023-03-31T11:51:24;16.90;99.90
22950;DHT22;11641;51.018;4.474;2023-03-31T11:53:55;16.40;99.90
22950;DHT22;11641;51.018;4.474;2023-03-31T11:56:24;16.30;99.90
22950;DHT22;11641;51.018;4.474;2023-03-31T11:58:55;16.30;99.90
22950;DHT22;11641;51.018;4.474;2023-03-31T12:01:39;16.50;99.90
22950;DHT22;11641;51.018;4.474;2023-03-31T12:06:38;15.90;99.90
22950;DHT22;11641;51.018;4.474;2023-03-31T12:11:48;15.20;99.90
22950;DHT22;11641;51.018;4.474;2023-03-31T12:17:14;14.80;99.90
22950;DHT22;11641;51.018;4.474;2023-03-31T12:22:30;14.50;99.90
22950;DHT22;11641;51.018;4.474;2023-03-31T12:24:57;14.40;99.90
22950;DHT22;11641;51.018;4.474;2023-03-31T12:29:59;14.10;99.90
22950;DHT22;11641;51.018;4.474;2023-03-31T12:32:31;13.80;99.90
22950;DHT22;11641;51.018;4.474;2023-03-31T12:37:43;13.20;99.90
22950;DHT22;11641;51.018;4.474;2023-03-31T12:43:02;13.20;99.90
22950;DHT22;11641;51.018;4.474;2023-03-31T12:45:37;13.30;99.90
22950;DHT22;11641;51.018;4.474;2023-03-31T12:53:59;13.20;99.90
22950;DHT22;11641;51.018;4.474;2023-03-31T12:56:25;12.90;99.90
22950;DHT22;11641;51.018;4.474;2023-03-31T12:58:51;12.80;99.90
22950;DHT22;11641;51.018;4.474;2023-03-31T13:01:21;12.70;99.90
22950;DHT22;11641;51.018;4.474;2023-03-31T13:09:06;12.90;99.90
22950;DHT22;11641;51.018;4.474;2023-03-31T13:11:43;13.10;99.90
22950;DHT22;11641;51.018;4.474;2023-03-31T13:19:50;13.40;99.90
22950;DHT22;11641;51.018;4.474;2023-03-31T13:22:35;13.50;99.90
22950;DHT22;11641;51.018;4.474;2023-03-31T13:27:56;13.70;99.90
22950;DHT22;11641;51.018;4.474;2023-03-31T13:39:02;13.60;99.90
22950;DHT22;11641;51.018;4.474;2023-03-31T13:44:41;13.40;99.90
22950;DHT22;11641;51.018;4.474;2023-03-31T13:50:36;13.80;99.90
22950;DHT22;11641;51.018;4.474;2023-03-31T13:53:28;13.90;99.90
22950;DHT22;11641;51.018;4.474;2023-03-31T14:01:55;14.00;99.90
22950;DHT22;11641;51.018;4.474;2023-03-31T14:07:36;13.70;99.90
22950;DHT22;11641;51.018;4.474;2023-03-31T14:10:02;13.60;99.90
22950;DHT22;11641;51.018;4.474;2023-03-31T14:12:37;13.80;99.90
22950;DHT22;11641;51.018;4.474;2023-03-31T14:15:04;14.30;99.90
22950;DHT22;11641;51.018;4.474;2023-03-31T14:17:38;14.80;99.90
22950;DHT22;11641;51.018;4.474;2023-03-31T14:33:44;13.90;99.90
22950;DHT22;11641;51.018;4.474;2023-03-31T14:36:23;13.80;99.90
22950;DHT22;11641;51.018;4.474;2023-03-31T14:39:00;13.50;99.90
22950;DHT22;11641;51.018;4.474;2023-03-31T14:41:26;13.60;99.90
22950;DHT22;11641;51.018;4.474;2023-03-31T14:44:00;13.80;99.90
22950;DHT22;11641;51.018;4.474;2023-03-31T14:46:29;13.70;99.90
22950;DHT22;11641;51.018;4.474;2023-03-31T14:49:24;13.80;99.90
22950;DHT22;11641;51.018;4.474;2023-03-31T14:51:57;13.80;99.90
22950;DHT22;11641;51.018;4.474;2023-03-31T14:54:24;13.40;99.90
22950;DHT22;11641;51.018;4.474;2023-03-31T14:56:53;13.70;99.90
22950;DHT22;11641;51.018;4.474;2023-03-31T14:59:25;13.60;99.90
22950;DHT22;11641;51.018;4.474;2023-03-31T15:01:53;13.20;99.90
22950;DHT22;11641;51.018;4.474;2023-03-31T15:04:23;13.20;99.90
22950;DHT22;11641;51.018;4.474;2023-03-31T15:06:50;13.10;99.90
22950;DHT22;11641;51.018;4.474;2023-03-31T15:09:28;13.00;99.90
22950;DHT22;11641;51.018;4.474;2023-03-31T15:11:59;13.10;99.90
22950;DHT22;11641;51.018;4.474;2023-03-31T15:14:34;13.10;99.90
22950;DHT22;11641;51.018;4.474;2023-03-31T15:17:03;13.00;99.90
22950;DHT22;11641;51.018;4.474;2023-03-31T15:19:34;12.90;99.90
22950;DHT22;11641;51.018;4.474;2023-03-31T15:22:17;13.00;99.90
22950;DHT22;11641;51.018;4.474;2023-03-31T15:24:43;13.00;99.90
22950;DHT22;11641;51.018;4.474;2023-03-31T15:29:47;12.70;99.90
22950;DHT22;11641;51.018;4.474;2023-03-31T15:32:22;12.70;99.90
22950;DHT22;11641;51.018;4.474;2023-03-31T15:34:51;12.60;99.90
22950;DHT22;11641;51.018;4.474;2023-03-31T15:37:41;12.80;99.90
22950;DHT22;11641;51.018;4.474;2023-03-31T15:40:28;12.80;99.90
22950;DHT22;11641;51.018;4.474;2023-03-31T15:42:57;12.80;99.90
22950;DHT22;11641;51.018;4.474;2023-03-31T15:47:55;13.20;99.90
22950;DHT22;11641;51.018;4.474;2023-03-31T15:50:22;13.20;99.90
22950;DHT22;11641;51.018;4.474;2023-03-31T15:52:52;13.10;99.90
22950;DHT22;11641;51.018;4.474;2023-03-31T15:57:51;13.00;99.90
22950;DHT22;11641;51.018;4.474;2023-03-31T16:03:15;12.80;99.90
22950;DHT22;11641;51.018;4.474;2023-03-31T16:05:56;12.60;99.90
22950;DHT22;11641;51.018;4.474;2023-03-31T16:11:04;12.80;99.90
22950;DHT22;11641;51.018;4.474;2023-03-31T16:13:32;12.80;99.90
22950;DHT22;11641;51.018;4.474;2023-03-31T16:15:58;12.40;99.90
22950;DHT22;11641;51.018;4.474;2023-03-31T16:20:57;12.00;99.90
22950;DHT22;11641;51.018;4.474;2023-03-31T16:23:33;12.00;99.90
22950;DHT22;11641;51.018;4.474;2023-03-31T16:26:00;11.90;99.90
22950;DHT22;11641;51.018;4.474;2023-03-31T16:28:28;11.60;99.90
22950;DHT22;11641;51.018;4.474;2023-03-31T16:30:56;11.60;99.90
22950;DHT22;11641;51.018;4.474;2023-03-31T16:33:27;11.70;99.90
22950;DHT22;11641;51.018;4.474;2023-03-31T16:35:55;11.60;99.90
22950;DHT22;11641;51.018;4.474;2023-03-31T16:38:24;11.60;99.90
22950;DHT22;11641;51.018;4.474;2023-03-31T16:40:55;11.70;99.90
22950;DHT22;11641;51.018;4.474;2023-03-31T16:43:24;11.80;99.90
22950;DHT22;11641;51.018;4.474;2023-03-31T16:45:53;11.80;99.90
22950;DHT22;11641;51.018;4.474;2023-03-31T16:48:22;11.60;99.90
22950;DHT22;11641;51.018;4.474;2023-03-31T16:50:53;11.60;99.90
22950;DHT22;11641;51.018;4.474;2023-03-31T16:53:25;11.60;99.90
22950;DHT22;11641;51.018;4.474;2023-03-31T16:55:52;11.60;99.90
22950;DHT22;11641;51.018;4.474;2023-03-31T16:58:23;11.50;99.90
22950;DHT22;11641;51.018;4.474;2023-03-31T17:00:52;11.50;99.90
22950;DHT22;11641;51.018;4.474;2023-03-31T17:03:18;11.30;99.90
22950;DHT22;11641;51.018;4.474;2023-03-31T17:05:46;11.30;99.90
22950;DHT22;11641;51.018;4.474;2023-03-31T17:08:14;11.20;99.90
22950;DHT22;11641;51.018;4.474;2023-03-31T17:10:40;11.30;99.90
22950;DHT22;11641;51.018;4.474;2023-03-31T17:13:07;11.30;99.90
22950;DHT22;11641;51.018;4.474;2023-03-31T17:15:34;11.30;99.90
22950;DHT22;11641;51.018;4.474;2023-03-31T17:18:03;11.30;99.90
22950;DHT22;11641;51.018;4.474;2023-03-31T17:20:31;11.30;99.90
22950;DHT22;11641;51.018;4.474;2023-03-31T17:22:58;11.30;99.90
22950;DHT22;11641;51.018;4.474;2023-03-31T17:25:24;11.30;99.90
22950;DHT22;11641;51.018;4.474;2023-03-31T17:27:50;11.30;99.90
22950;DHT22;11641;51.018;4.474;2023-03-31T17:30:16;11.30;99.90
22950;DHT22;11641;51.018;4.474;2023-03-31T17:32:42;11.20;99.90
22950;DHT22;11641;51.018;4.474;2023-03-31T17:35:08;11.20;99.90
22950;DHT22;11641;51.018;4.474;2023-03-31T17:37:36;11.10;99.90
22950;DHT22;11641;51.018;4.474;2023-03-31T17:40:02;11.10;99.90
22950;DHT22;11641;51.018;4.474;2023-03-31T17:42:29;11.00;99.90
22950;DHT22;11641;51.018;4.474;2023-03-31T17:44:55;11.00;99.90
22950;DHT22;11641;51.018;4.474;2023-03-31T17:47:23;11.00;99.90
22950;DHT22;11641;51.018;4.474;2023-03-31T17:49:48;11.10;99.90
22950;DHT22;11641;51.018;4.474;2023-03-31T17:52:14;11.10;99.90
22950;DHT22;11641;51.018;4.474;2023-03-31T17:54:40;11.10;99.90
22950;DHT22;11641;51.018;4.474;2023-03-31T17:57:09;11.20;99.90
22950;DHT22;11641;51.018;4.474;2023-03-31T17:59:36;11.10;99.90
22950;DHT22;11641;51.018;4.474;2023-03-31T18:02:02;11.00;99.90
22950;DHT22;11641;51.018;4.474;2023-03-31T18:04:27;10.90;99.90
22950;DHT22;11641;51.018;4.474;2023-03-31T18:06:53;10.90;99.90
22950;DHT22;11641;51.018;4.474;2023-03-31T18:09:19;11.00;99.90
22950;DHT22;11641;51.018;4.474;2023-03-31T18:11:45;11.00;99.90
22950;DHT22;11641;51.018;4.474;2023-03-31T18:14:11;11.00;99.90
22950;DHT22;11641;51.018;4.474;2023-03-31T18:16:37;10.90;99.90
22950;DHT22;11641;51.018;4.474;2023-03-31T18:19:03;11.00;99.90
22950;DHT22;11641;51.018;4.474;2023-03-31T18:21:31;10.90;99.90
22950;DHT22;11641;51.018;4.474;2023-03-31T18:23:57;11.10;99.90
22950;DHT22;11641;51.018;4.474;2023-03-31T18:26:24;11.00;99.90
22950;DHT22;11641;51.018;4.474;2023-03-31T18:28:53;11.00;99.90
22950;DHT22;11641;51.018;4.474;2023-03-31T18:31:19;11.00;99.90
22950;DHT22;11641;51.018;4.474;2023-03-31T18:33:49;11.10;99.90
22950;DHT22;11641;51.018;4.474;2023-03-31T18:36:18;11.10;99.90
22950;DHT22;11641;51.018;4.474;2023-03-31T18:38:45;11.00;99.90
22950;DHT22;11641;51.018;4.474;2023-03-31T18:41:11;11.00;99.90
22950;DHT22;11641;51.018;4.474;2023-03-31T18:43:37;11.00;99.90
22950;DHT22;11641;51.018;4.474;2023-03-31T18:46:03;11.00;99.90
22950;DHT22;11641;51.018;4.474;2023-03-31T18:48:30;10.90;99.90
22950;DHT22;11641;51.018;4.474;2023-03-31T18:50:56;11.00;99.90
22950;DHT22;11641;51.018;4.474;2023-03-31T18:53:24;11.10;99.90
22950;DHT22;11641;51.018;4.474;2023-03-31T18:55:51;11.00;99.90
22950;DHT22;11641;51.018;4.474;2023-03-31T18:58:17;11.00;99.90
22950;DHT22;11641;51.018;4.474;2023-03-31T19:00:46;11.00;99.90
22950;DHT22;11641;51.018;4.474;2023-03-31T19:03:11;11.00;99.90
22950;DHT22;11641;51.018;4.474;2023-03-31T19:05:38;11.10;99.90
22950;DHT22;11641;51.018;4.474;2023-03-31T19:08:04;11.10;99.90
22950;DHT22;11641;51.018;4.474;2023-03-31T19:10:30;11.10;99.90